createdAt,value
2022-09-03T00:02:23.580Z,2.78
2022-09-03T00:05:40.464Z,2.72
2022-09-03T00:09:00.735Z,2.47
2022-09-03T00:12:13.231Z,2.70
2022-09-03T00:15:23.228Z,2.65
2022-09-03T00:18:35.233Z,2.53
2022-09-03T00:21:50.646Z,2.45
2022-09-03T00:25:03.259Z,2.50
2022-09-03T00:28:19.051Z,2.55
2022-09-03T00:31:33.311Z,2.40
2022-09-03T00:34:45.515Z,2.78
2022-09-03T00:37:55.536Z,3.00
2022-09-03T00:44:48.639Z,2.50
2022-09-03T00:48:08.159Z,2.60
2022-09-03T00:51:28.827Z,2.67
2022-09-03T00:54:45.806Z,2.70
2022-09-03T00:58:10.066Z,2.60
2022-09-03T01:01:24.533Z,2.55
2022-09-03T01:04:45.431Z,2.88
2022-09-03T01:08:02.207Z,2.80
2022-09-03T01:11:23.289Z,2.60
2022-09-03T01:14:45.437Z,2.67
2022-09-03T01:18:07.418Z,2.80
2022-09-03T01:21:48.279Z,2.65
2022-09-03T01:25:18.531Z,2.50
2022-09-03T01:28:45.476Z,2.70
2022-09-03T01:32:04.496Z,2.85
2022-09-03T01:35:21.120Z,2.93
2022-09-03T01:38:36.765Z,2.75
2022-09-03T01:42:12.536Z,2.60
2022-09-03T01:45:51.160Z,2.80
2022-09-03T01:49:11.460Z,2.67
2022-09-03T01:52:26.488Z,3.15
2022-09-03T01:55:36.731Z,2.58
2022-09-03T01:58:49.530Z,3.10
2022-09-03T02:02:06.596Z,2.78
2022-09-03T02:05:16.509Z,2.53
2022-09-03T02:11:33.572Z,2.80
2022-09-03T02:14:44.351Z,2.65
2022-09-03T02:18:16.411Z,3.00
2022-09-03T02:21:31.145Z,3.03
2022-09-03T02:24:41.487Z,2.80
2022-09-03T02:27:53.251Z,3.03
2022-09-03T02:31:03.806Z,3.05
2022-09-03T02:34:18.315Z,3.17
2022-09-03T02:37:29.537Z,2.72
2022-09-03T02:40:41.585Z,2.90
2022-09-03T02:43:55.235Z,3.25
2022-09-03T02:47:09.807Z,2.53
2022-09-03T02:50:24.853Z,3.20
2022-09-03T02:53:33.914Z,3.50
2022-09-03T02:56:51.419Z,3.40
2022-09-03T03:00:02.152Z,3.33
2022-09-03T03:03:16.192Z,3.45
2022-09-03T03:06:30.147Z,3.22
2022-09-03T03:09:40.529Z,3.40
2022-09-03T03:12:50.870Z,3.40
2022-09-03T03:16:02.632Z,3.72
2022-09-03T03:19:12.378Z,3.90
2022-09-03T03:22:23.586Z,3.28
2022-09-03T03:25:33.860Z,3.13
2022-09-03T03:28:44.218Z,3.67
2022-09-03T03:31:55.840Z,3.60
2022-09-03T03:35:06.163Z,2.90
2022-09-03T03:38:26.375Z,3.45
2022-09-03T03:41:37.133Z,3.70
2022-09-03T03:44:47.636Z,3.60
2022-09-03T03:47:55.349Z,3.50
2022-09-03T03:51:09.949Z,3.47
2022-09-03T03:54:23.619Z,3.60
2022-09-03T03:57:37.411Z,3.67
2022-09-03T04:00:46.839Z,3.80
2022-09-03T04:03:57.750Z,3.38
2022-09-03T04:07:06.286Z,3.80
2022-09-03T04:10:20.777Z,4.18
2022-09-03T04:13:29.237Z,3.92
2022-09-03T04:16:39.506Z,3.90
2022-09-03T04:19:49.499Z,4.15
2022-09-03T04:23:00.638Z,3.78
2022-09-03T04:26:13.629Z,3.67
2022-09-03T04:29:23.738Z,3.88
2022-09-03T04:32:48.499Z,4.15
2022-09-03T04:36:11.058Z,4.15
2022-09-03T04:39:20.528Z,3.97
2022-09-03T04:42:35.819Z,4.32
2022-09-03T04:45:44.215Z,4.25
2022-09-03T04:48:58.276Z,4.47
2022-09-03T04:52:07.544Z,4.70
2022-09-03T04:55:18.164Z,4.55
2022-09-03T04:58:30.765Z,4.30
2022-09-03T05:01:43.287Z,4.03
2022-09-03T05:04:55.529Z,4.55
2022-09-03T05:08:06.587Z,4.53
2022-09-03T05:11:15.847Z,4.87
2022-09-03T05:14:30.390Z,4.80
2022-09-03T05:17:39.622Z,4.57
2022-09-03T05:20:52.526Z,4.53
2022-09-03T05:24:01.817Z,4.38
2022-09-03T05:27:12.602Z,5.22
2022-09-03T05:30:27.996Z,4.82
2022-09-03T05:33:38.270Z,4.85
2022-09-03T05:36:43.758Z,4.80
2022-09-03T05:39:51.506Z,5.10
2022-09-03T05:43:06.528Z,5.30
2022-09-03T05:46:21.760Z,5.00
2022-09-03T05:49:30.629Z,5.03
2022-09-03T05:52:39.001Z,4.82
2022-09-03T05:56:02.379Z,5.35
2022-09-03T05:59:16.169Z,5.00
2022-09-03T06:02:25.034Z,5.40
2022-09-03T06:05:32.572Z,5.30
2022-09-03T06:08:40.372Z,5.28
2022-09-03T06:15:12.129Z,5.57
2022-09-03T06:18:30.290Z,5.40
2022-09-03T06:21:38.058Z,5.18
2022-09-03T06:24:47.981Z,5.70
2022-09-03T06:27:56.247Z,5.65
2022-09-03T06:34:20.376Z,5.15
2022-09-03T06:37:35.066Z,5.43
2022-09-03T06:40:42.967Z,5.47
2022-09-03T06:43:54.225Z,5.20
2022-09-03T06:47:04.159Z,5.13
2022-09-03T06:50:23.584Z,5.40
2022-09-03T06:53:36.142Z,5.53
2022-09-03T06:56:48.337Z,6.30
2022-09-03T06:59:58.598Z,6.93
2022-09-03T07:03:12.303Z,8.00
2022-09-03T07:06:24.336Z,7.65
2022-09-03T07:09:40.061Z,7.85
2022-09-03T07:12:49.228Z,9.45
2022-09-03T07:16:03.471Z,9.05
2022-09-03T07:19:11.029Z,9.40
2022-09-03T07:22:31.598Z,9.68
2022-09-03T07:25:40.002Z,9.35
2022-09-03T07:28:50.920Z,9.90
2022-09-03T07:32:00.071Z,9.70
2022-09-03T07:35:11.296Z,9.50
2022-09-03T07:38:26.110Z,9.98
2022-09-03T07:41:38.326Z,10.63
2022-09-03T07:44:49.575Z,10.65
2022-09-03T07:48:00.277Z,10.57
2022-09-03T07:51:08.818Z,10.88
2022-09-03T07:54:23.089Z,10.23
2022-09-03T07:57:33.252Z,10.45
2022-09-03T08:00:45.743Z,10.50
2022-09-03T08:03:59.152Z,10.07
2022-09-03T08:07:07.057Z,9.27
2022-09-03T08:10:28.068Z,9.32
2022-09-03T08:13:37.282Z,9.43
2022-09-03T08:16:48.392Z,9.55
2022-09-03T08:20:01.946Z,10.00
2022-09-03T08:23:07.905Z,9.20
2022-09-03T08:26:22.257Z,9.60
2022-09-03T08:29:36.480Z,8.90
2022-09-03T08:32:53.445Z,9.35
2022-09-03T08:36:05.977Z,8.57
2022-09-03T08:39:14.932Z,8.35
2022-09-03T08:42:39.063Z,8.18
2022-09-03T08:45:53.981Z,8.32
2022-09-03T08:49:09.842Z,7.75
2022-09-03T08:52:34.488Z,7.57
2022-09-03T08:55:47.567Z,7.57
2022-09-03T08:59:06.907Z,7.47
2022-09-03T09:02:32.249Z,7.32
2022-09-03T09:05:52.394Z,7.35
2022-09-03T09:09:18.133Z,7.25
2022-09-03T09:12:42.822Z,7.03
2022-09-03T09:16:11.279Z,6.82
2022-09-03T09:19:32.200Z,6.65
2022-09-03T09:22:47.901Z,7.03
2022-09-03T09:25:56.735Z,6.53
2022-09-03T09:29:13.624Z,5.88
2022-09-03T09:32:25.633Z,6.20
2022-09-03T09:35:46.646Z,5.70
2022-09-03T09:39:08.226Z,5.65
2022-09-03T09:42:16.138Z,6.03
2022-09-03T09:45:21.703Z,5.70
2022-09-03T09:48:57.649Z,5.47
2022-09-03T09:52:16.785Z,5.70
2022-09-03T09:55:35.653Z,5.53
2022-09-03T09:58:49.857Z,5.30
2022-09-03T10:02:22.374Z,4.68
2022-09-03T10:05:41.756Z,4.80
2022-09-03T10:08:54.966Z,4.72
2022-09-03T10:12:32.264Z,4.60
2022-09-03T10:15:57.960Z,4.40
2022-09-03T10:19:13.705Z,4.55
2022-09-03T10:22:31.641Z,3.88
2022-09-03T10:25:56.670Z,4.32
2022-09-03T10:29:10.443Z,4.20
2022-09-03T10:32:47.797Z,3.85
2022-09-03T10:36:25.543Z,4.03
2022-09-03T10:39:56.075Z,4.03
2022-09-03T10:43:33.045Z,3.90
2022-09-03T10:47:18.277Z,3.75
2022-09-03T10:50:36.770Z,4.07
2022-09-03T10:54:07.349Z,3.50
2022-09-03T10:57:36.087Z,3.78
2022-09-03T11:01:02.995Z,3.67
2022-09-03T11:04:28.770Z,3.53
2022-09-03T11:07:47.015Z,3.35
2022-09-03T11:11:14.577Z,3.47
2022-09-03T11:14:42.269Z,3.28
2022-09-03T11:17:59.276Z,3.30
2022-09-03T11:21:12.074Z,3.10
2022-09-03T11:24:23.454Z,3.28
2022-09-03T11:27:56.992Z,3.30
2022-09-03T11:31:20.512Z,3.05
2022-09-03T11:34:33.126Z,3.47
2022-09-03T11:37:56.596Z,3.45
2022-09-03T11:41:06.680Z,3.10
2022-09-03T11:44:24.140Z,3.03
2022-09-03T11:47:43.206Z,3.28
2022-09-03T11:50:59.877Z,3.10
2022-09-03T11:54:07.998Z,3.17
2022-09-03T11:57:19.914Z,3.17
2022-09-03T12:00:25.864Z,3.20
2022-09-03T12:03:47.266Z,3.25
2022-09-03T12:07:20.759Z,2.97
2022-09-03T12:10:39.760Z,2.92
2022-09-03T12:13:54.587Z,3.05
2022-09-03T12:17:18.607Z,3.10
2022-09-03T12:20:31.910Z,3.20
2022-09-03T12:23:45.474Z,2.90
2022-09-03T12:26:50.965Z,2.95
2022-09-03T12:30:01.613Z,3.20
2022-09-03T12:33:11.259Z,2.80
2022-09-03T12:36:22.313Z,3.00
2022-09-03T12:43:37.118Z,2.85
2022-09-03T12:46:33.268Z,2.80
2022-09-03T12:49:43.486Z,2.97
2022-09-03T12:52:54.568Z,3.30
2022-09-03T12:56:06.805Z,2.75
2022-09-03T12:59:17.533Z,3.05
2022-09-03T13:02:29.467Z,2.92
2022-09-03T13:08:51.569Z,2.78
2022-09-03T13:11:59.657Z,2.88
2022-09-03T13:15:12.601Z,2.95
2022-09-03T13:18:28.882Z,3.10
2022-09-03T13:21:50.694Z,3.10
2022-09-03T13:25:16.032Z,2.75
2022-09-03T13:28:41.189Z,3.17
2022-09-03T13:31:53.844Z,2.70
2022-09-03T13:35:09.642Z,3.03
2022-09-03T13:38:37.108Z,2.88
2022-09-03T13:41:53.844Z,3.03
2022-09-03T13:45:07.577Z,2.80
2022-09-03T13:48:36.872Z,2.70
2022-09-03T13:51:50.660Z,2.85
2022-09-03T13:55:04.262Z,2.90
2022-09-03T13:58:23.095Z,2.90
2022-09-03T14:01:43.237Z,3.20
2022-09-03T14:05:03.551Z,2.90
2022-09-03T14:08:22.681Z,3.20
2022-09-03T14:11:34.131Z,2.88
2022-09-03T14:14:54.034Z,2.97
2022-09-03T14:18:06.096Z,3.13
2022-09-03T14:21:20.297Z,3.15
2022-09-03T14:24:30.283Z,3.10
2022-09-03T14:27:38.052Z,2.83
2022-09-03T14:30:55.992Z,2.90
2022-09-03T14:34:10.670Z,3.25
2022-09-03T14:37:28.887Z,3.40
2022-09-03T14:40:45.738Z,3.03
2022-09-03T14:44:10.603Z,2.97
2022-09-03T14:47:34.310Z,2.95
2022-09-03T14:50:59.750Z,3.20
2022-09-03T14:54:37.983Z,3.33
2022-09-03T14:58:02.626Z,3.35
2022-09-03T15:01:16.700Z,3.00
2022-09-03T15:04:53.300Z,3.20
2022-09-03T15:08:05.457Z,2.90
2022-09-03T15:11:20.224Z,3.15
2022-09-03T15:14:33.260Z,3.15
2022-09-03T15:17:52.531Z,2.88
2022-09-03T15:21:15.815Z,2.78
2022-09-03T15:24:30.982Z,3.17
2022-09-03T15:27:49.949Z,2.70
2022-09-03T15:31:07.883Z,3.38
2022-09-03T15:37:32.229Z,3.17
2022-09-03T15:40:44.999Z,3.28
2022-09-03T15:43:54.540Z,3.40
2022-09-03T15:47:14.446Z,3.00
2022-09-03T15:50:33.206Z,3.03
2022-09-03T15:53:49.258Z,3.05
2022-09-03T15:56:59.090Z,3.30
2022-09-03T16:00:11.533Z,3.25
2022-09-03T16:03:23.903Z,3.15
2022-09-03T16:06:38.313Z,3.20
2022-09-03T16:10:22.808Z,3.45
2022-09-03T16:13:47.869Z,3.30
2022-09-03T16:17:01.932Z,3.67
2022-09-03T16:20:20.765Z,3.40
2022-09-03T16:23:32.097Z,3.80
2022-09-03T16:26:51.113Z,3.60
2022-09-03T16:30:05.982Z,3.53
2022-09-03T16:33:23.373Z,3.33
2022-09-03T16:36:42.414Z,3.55
2022-09-03T16:39:58.589Z,3.60
2022-09-03T16:43:38.857Z,3.15
2022-09-03T16:46:49.598Z,3.78
2022-09-03T16:50:03.662Z,3.70
2022-09-03T16:53:19.810Z,3.40
2022-09-03T16:56:43.531Z,3.70
2022-09-03T17:00:11.214Z,3.65
2022-09-03T17:03:30.146Z,3.13
2022-09-03T17:06:59.918Z,3.42
2022-09-03T17:10:18.125Z,3.55
2022-09-03T17:14:02.963Z,3.63
2022-09-03T17:17:20.628Z,3.65
2022-09-03T17:20:49.034Z,3.40
2022-09-03T17:24:33.619Z,3.78
2022-09-03T17:28:05.753Z,3.67
2022-09-03T17:31:23.648Z,3.58
2022-09-03T17:34:52.826Z,3.70
2022-09-03T17:38:09.148Z,3.65
2022-09-03T17:41:25.356Z,3.60
2022-09-03T17:44:45.059Z,3.58
2022-09-03T17:48:15.579Z,3.45
2022-09-03T17:51:37.172Z,3.90
2022-09-03T17:54:48.235Z,3.17
2022-09-03T17:58:00.294Z,3.50
2022-09-03T18:01:17.912Z,3.70
2022-09-03T18:04:46.981Z,3.75
2022-09-03T18:08:06.024Z,3.60
2022-09-03T18:11:14.704Z,3.28
2022-09-03T18:14:29.431Z,3.10
2022-09-03T18:17:41.060Z,3.40
2022-09-03T18:21:23.231Z,3.40
2022-09-03T18:31:47.661Z,3.22
2022-09-03T18:35:11.032Z,3.50
2022-09-03T18:38:33.361Z,3.35
2022-09-03T18:42:21.792Z,3.70
2022-09-03T18:46:38.567Z,3.47
2022-09-03T18:49:46.420Z,3.50
2022-09-03T18:53:14.992Z,3.50
2022-09-03T18:56:49.794Z,3.50
2022-09-03T19:00:28.846Z,3.45
2022-09-03T19:04:08.347Z,3.33
2022-09-03T19:07:35.718Z,3.53
2022-09-03T19:11:08.256Z,3.67
2022-09-03T19:14:41.209Z,3.30
2022-09-03T19:18:24.481Z,3.92
2022-09-03T19:21:53.042Z,4.00
2022-09-03T19:25:22.952Z,4.32
2022-09-03T19:28:48.417Z,4.47
2022-09-03T19:32:20.404Z,3.95
2022-09-03T19:39:26.384Z,4.50
2022-09-03T19:42:59.268Z,4.18
2022-09-03T19:46:58.363Z,4.45
2022-09-03T19:50:31.548Z,4.72
2022-09-03T19:54:01.545Z,4.32
2022-09-03T19:57:24.430Z,4.20
2022-09-03T20:00:48.503Z,4.40
2022-09-03T20:04:10.821Z,4.15
2022-09-03T20:07:39.983Z,4.38
2022-09-03T20:10:51.671Z,4.03
2022-09-03T20:14:16.582Z,4.25
2022-09-03T20:17:32.252Z,4.43
2022-09-03T20:20:45.711Z,4.10
2022-09-03T20:24:00.394Z,4.15
2022-09-03T20:27:21.237Z,4.22
2022-09-03T20:34:19.885Z,4.15
2022-09-03T20:37:32.089Z,4.10
2022-09-03T20:40:49.695Z,3.90
2022-09-03T20:44:20.935Z,4.07
2022-09-03T20:48:01.541Z,3.92
2022-09-03T20:51:13.524Z,4.10
2022-09-03T20:57:51.981Z,3.90
2022-09-03T21:01:06.689Z,3.85
2022-09-03T21:07:40.148Z,3.70
2022-09-03T21:10:55.782Z,3.50
2022-09-03T21:14:15.008Z,3.53
2022-09-03T21:17:40.033Z,3.40
2022-09-03T21:20:53.309Z,3.30
2022-09-03T21:24:08.087Z,3.28
2022-09-03T21:27:21.067Z,3.47
2022-09-03T21:30:29.362Z,3.40
2022-09-03T21:33:42.616Z,3.08
2022-09-03T21:36:50.833Z,3.30
2022-09-03T21:40:00.279Z,3.40
2022-09-03T21:43:14.583Z,3.15
2022-09-03T21:46:27.476Z,2.97
2022-09-03T21:49:43.101Z,2.95
2022-09-03T21:52:55.349Z,2.83
2022-09-03T21:56:22.339Z,3.22
2022-09-03T22:00:00.822Z,3.05
2022-09-03T22:03:12.650Z,2.88
2022-09-03T22:06:25.965Z,3.00
2022-09-03T22:09:41.372Z,3.05
2022-09-03T22:12:59.721Z,2.78
2022-09-03T22:16:13.695Z,2.75
2022-09-03T22:19:21.443Z,3.10
2022-09-03T22:22:41.011Z,2.60
2022-09-03T22:26:01.590Z,2.85
2022-09-03T22:29:17.126Z,2.75
2022-09-03T22:32:36.779Z,2.80
2022-09-03T22:35:53.033Z,2.60
2022-09-03T22:39:15.034Z,2.85
2022-09-03T22:42:53.741Z,2.20
2022-09-03T22:46:13.483Z,2.50
2022-09-03T22:52:42.044Z,2.28
2022-09-03T22:56:01.053Z,2.72
2022-09-03T22:59:10.859Z,2.63
2022-09-03T23:02:24.447Z,2.85
2022-09-03T23:05:38.710Z,2.30
2022-09-03T23:08:55.424Z,2.30
2022-09-03T23:12:11.495Z,2.70
2022-09-03T23:15:22.586Z,2.60
2022-09-03T23:18:33.080Z,2.30
2022-09-03T23:21:44.011Z,2.47
2022-09-03T23:24:56.864Z,2.30
2022-09-03T23:28:11.991Z,2.28
2022-09-03T23:31:24.138Z,2.28
2022-09-03T23:34:31.584Z,1.98
2022-09-03T23:37:55.530Z,2.17
2022-09-03T23:41:03.729Z,2.42
2022-09-03T23:44:33.412Z,2.22
2022-09-03T23:47:45.766Z,2.28
2022-09-03T23:51:06.468Z,2.10
2022-09-03T23:54:23.086Z,1.95
2022-09-03T23:57:40.696Z,2.03
